sensor_id;sensor_type;location;lat;lon;timestamp;temperature;humidity
54461;DHT22;69977;49.414;11.010;2023-08-06T00:00:22;15.90;99.90
54461;DHT22;69977;49.414;11.010;2023-08-06T00:02:49;15.90;99.90
54461;DHT22;69977;49.414;11.010;2023-08-06T00:05:15;16.00;99.90
54461;DHT22;69977;49.414;11.010;2023-08-06T00:07:46;15.90;99.90
54461;DHT22;69977;49.414;11.010;2023-08-06T00:10:12;15.90;99.90
54461;DHT22;69977;49.414;11.010;2023-08-06T00:12:38;15.90;99.90
54461;DHT22;69977;49.414;11.010;2023-08-06T00:15:04;15.80;99.90
54461;DHT22;69977;49.414;11.010;2023-08-06T00:17:30;15.80;99.90
54461;DHT22;69977;49.414;11.010;2023-08-06T00:19:55;15.80;99.90
54461;DHT22;69977;49.414;11.010;2023-08-06T00:22:21;15.70;99.90
54461;DHT22;69977;49.414;11.010;2023-08-06T00:24:47;15.80;99.90
54461;DHT22;69977;49.414;11.010;2023-08-06T00:27:13;15.80;99.90
54461;DHT22;69977;49.414;11.010;2023-08-06T00:29:38;15.70;99.90
54461;DHT22;69977;49.414;11.010;2023-08-06T00:32:04;15.80;99.90
54461;DHT22;69977;49.414;11.010;2023-08-06T00:34:30;15.80;99.90
54461;DHT22;69977;49.414;11.010;2023-08-06T00:36:56;15.70;99.90
54461;DHT22;69977;49.414;11.010;2023-08-06T00:39:21;15.60;99.90
54461;DHT22;69977;49.414;11.010;2023-08-06T00:41:49;15.70;99.90
54461;DHT22;69977;49.414;11.010;2023-08-06T00:44:14;15.70;99.90
54461;DHT22;69977;49.414;11.010;2023-08-06T00:46:40;15.60;99.90
54461;DHT22;69977;49.414;11.010;2023-08-06T00:49:06;15.70;99.90
54461;DHT22;69977;49.414;11.010;2023-08-06T00:51:32;15.70;99.90
54461;DHT22;69977;49.414;11.010;2023-08-06T00:53:59;15.70;99.90
54461;DHT22;69977;49.414;11.010;2023-08-06T00:56:26;15.60;99.90
54461;DHT22;69977;49.414;11.010;2023-08-06T00:58:54;15.70;99.90
54461;DHT22;69977;49.414;11.010;2023-08-06T01:01:19;15.60;99.90
54461;DHT22;69977;49.414;11.010;2023-08-06T01:03:46;15.60;99.90
54461;DHT22;69977;49.414;11.010;2023-08-06T01:06:12;15.60;99.90
54461;DHT22;69977;49.414;11.010;2023-08-06T01:14:53;15.60;99.90
54461;DHT22;69977;49.414;11.010;2023-08-06T01:16:50;15.60;99.90
54461;DHT22;69977;49.414;11.010;2023-08-06T01:19:17;15.60;99.90
54461;DHT22;69977;49.414;11.010;2023-08-06T01:21:44;15.60;99.90
54461;DHT22;69977;49.414;11.010;2023-08-06T01:24:10;15.60;99.90
54461;DHT22;69977;49.414;11.010;2023-08-06T01:26:52;15.70;99.90
54461;DHT22;69977;49.414;11.010;2023-08-06T01:29:27;15.60;99.90
54461;DHT22;69977;49.414;11.010;2023-08-06T01:31:55;15.50;99.90
54461;DHT22;69977;49.414;11.010;2023-08-06T01:34:24;15.50;99.90
54461;DHT22;69977;49.414;11.010;2023-08-06T01:36:52;15.50;99.90
54461;DHT22;69977;49.414;11.010;2023-08-06T01:39:18;15.50;99.90
54461;DHT22;69977;49.414;11.010;2023-08-06T01:41:47;15.40;99.90
54461;DHT22;69977;49.414;11.010;2023-08-06T01:44:14;15.50;99.90
54461;DHT22;69977;49.414;11.010;2023-08-06T01:46:40;15.40;99.90
54461;DHT22;69977;49.414;11.010;2023-08-06T01:49:06;15.50;99.90
54461;DHT22;69977;49.414;11.010;2023-08-06T01:51:32;15.50;99.90
54461;DHT22;69977;49.414;11.010;2023-08-06T01:53:58;15.30;99.90
54461;DHT22;69977;49.414;11.010;2023-08-06T01:56:24;15.20;99.90
54461;DHT22;69977;49.414;11.010;2023-08-06T01:58:50;15.20;99.90
54461;DHT22;69977;49.414;11.010;2023-08-06T02:01:16;14.90;99.90
54461;DHT22;69977;49.414;11.010;2023-08-06T02:03:42;15.00;99.90
54461;DHT22;69977;49.414;11.010;2023-08-06T02:06:09;15.20;99.90
54461;DHT22;69977;49.414;11.010;2023-08-06T02:08:35;15.30;99.90
54461;DHT22;69977;49.414;11.010;2023-08-06T02:11:01;15.30;99.90
54461;DHT22;69977;49.414;11.010;2023-08-06T02:13:30;15.30;99.90
54461;DHT22;69977;49.414;11.010;2023-08-06T02:15:55;15.40;99.90
54461;DHT22;69977;49.414;11.010;2023-08-06T02:18:21;15.30;99.90
54461;DHT22;69977;49.414;11.010;2023-08-06T02:20:59;15.30;99.90
54461;DHT22;69977;49.414;11.010;2023-08-06T02:23:26;15.10;99.90
54461;DHT22;69977;49.414;11.010;2023-08-06T02:26:02;15.20;99.90
54461;DHT22;69977;49.414;11.010;2023-08-06T02:28:29;15.10;99.90
54461;DHT22;69977;49.414;11.010;2023-08-06T02:30:55;15.20;99.90
54461;DHT22;69977;49.414;11.010;2023-08-06T02:33:21;15.20;99.90
54461;DHT22;69977;49.414;11.010;2023-08-06T02:35:47;15.10;99.90
54461;DHT22;69977;49.414;11.010;2023-08-06T02:38:13;15.20;99.90
54461;DHT22;69977;49.414;11.010;2023-08-06T02:40:46;15.20;99.90
54461;DHT22;69977;49.414;11.010;2023-08-06T02:43:13;15.30;99.90
54461;DHT22;69977;49.414;11.010;2023-08-06T02:45:39;15.20;99.90
54461;DHT22;69977;49.414;11.010;2023-08-06T02:48:05;15.20;99.90
54461;DHT22;69977;49.414;11.010;2023-08-06T02:50:31;15.10;99.90
54461;DHT22;69977;49.414;11.010;2023-08-06T02:53:02;15.00;99.90
54461;DHT22;69977;49.414;11.010;2023-08-06T02:55:28;15.10;99.90
54461;DHT22;69977;49.414;11.010;2023-08-06T02:57:54;15.10;99.90
54461;DHT22;69977;49.414;11.010;2023-08-06T03:00:20;15.10;99.90
54461;DHT22;69977;49.414;11.010;2023-08-06T03:02:46;15.10;99.90
54461;DHT22;69977;49.414;11.010;2023-08-06T03:05:37;15.20;99.90
54461;DHT22;69977;49.414;11.010;2023-08-06T03:08:04;15.20;99.90
54461;DHT22;69977;49.414;11.010;2023-08-06T03:10:30;15.20;99.90
54461;DHT22;69977;49.414;11.010;2023-08-06T03:12:59;15.10;99.90
54461;DHT22;69977;49.414;11.010;2023-08-06T03:15:25;14.90;99.90
54461;DHT22;69977;49.414;11.010;2023-08-06T03:17:52;15.00;99.90
54461;DHT22;69977;49.414;11.010;2023-08-06T03:20:20;14.60;99.90
54461;DHT22;69977;49.414;11.010;2023-08-06T03:22:46;14.50;99.90
54461;DHT22;69977;49.414;11.010;2023-08-06T03:25:12;14.40;99.90
54461;DHT22;69977;49.414;11.010;2023-08-06T03:27:37;14.50;99.90
54461;DHT22;69977;49.414;11.010;2023-08-06T03:30:04;14.50;99.90
54461;DHT22;69977;49.414;11.010;2023-08-06T03:32:30;14.50;99.90
54461;DHT22;69977;49.414;11.010;2023-08-06T03:34:57;14.30;99.90
54461;DHT22;69977;49.414;11.010;2023-08-06T03:37:26;14.30;99.90
54461;DHT22;69977;49.414;11.010;2023-08-06T03:39:52;14.30;99.90
54461;DHT22;69977;49.414;11.010;2023-08-06T03:42:18;14.20;99.90
54461;DHT22;69977;49.414;11.010;2023-08-06T03:44:44;14.00;99.90
54461;DHT22;69977;49.414;11.010;2023-08-06T03:47:10;13.90;99.90
54461;DHT22;69977;49.414;11.010;2023-08-06T03:49:36;13.90;99.90
54461;DHT22;69977;49.414;11.010;2023-08-06T03:54:38;13.90;99.90
54461;DHT22;69977;49.414;11.010;2023-08-06T03:57:05;13.70;99.90
54461;DHT22;69977;49.414;11.010;2023-08-06T03:59:31;13.60;99.90
54461;DHT22;69977;49.414;11.010;2023-08-06T04:01:57;13.70;99.90
54461;DHT22;69977;49.414;11.010;2023-08-06T04:04:23;13.50;99.90
54461;DHT22;69977;49.414;11.010;2023-08-06T04:06:49;13.50;99.90
54461;DHT22;69977;49.414;11.010;2023-08-06T04:09:15;13.50;99.90
54461;DHT22;69977;49.414;11.010;2023-08-06T04:11:40;13.40;99.90
54461;DHT22;69977;49.414;11.010;2023-08-06T04:14:08;13.30;99.90
54461;DHT22;69977;49.414;11.010;2023-08-06T04:16:34;13.20;99.90
54461;DHT22;69977;49.414;11.010;2023-08-06T04:19:01;13.20;99.90
54461;DHT22;69977;49.414;11.010;2023-08-06T04:21:26;13.20;99.90
54461;DHT22;69977;49.414;11.010;2023-08-06T04:23:52;13.20;99.90
54461;DHT22;69977;49.414;11.010;2023-08-06T04:26:19;13.20;99.90
54461;DHT22;69977;49.414;11.010;2023-08-06T04:28:44;13.20;99.90
54461;DHT22;69977;49.414;11.010;2023-08-06T04:31:10;13.10;99.90
54461;DHT22;69977;49.414;11.010;2023-08-06T04:33:39;13.20;99.90
54461;DHT22;69977;49.414;11.010;2023-08-06T04:36:09;13.20;99.90
54461;DHT22;69977;49.414;11.010;2023-08-06T04:38:34;13.30;99.90
54461;DHT22;69977;49.414;11.010;2023-08-06T04:41:02;13.30;99.90
54461;DHT22;69977;49.414;11.010;2023-08-06T04:43:29;13.40;99.90
54461;DHT22;69977;49.414;11.010;2023-08-06T04:45:55;13.30;99.90
54461;DHT22;69977;49.414;11.010;2023-08-06T04:48:22;13.40;99.90
54461;DHT22;69977;49.414;11.010;2023-08-06T04:50:49;13.50;99.90
54461;DHT22;69977;49.414;11.010;2023-08-06T04:53:16;13.50;99.90
54461;DHT22;69977;49.414;11.010;2023-08-06T04:55:42;13.50;99.90
54461;DHT22;69977;49.414;11.010;2023-08-06T04:58:09;13.50;99.90
54461;DHT22;69977;49.414;11.010;2023-08-06T05:00:35;13.50;99.90
54461;DHT22;69977;49.414;11.010;2023-08-06T05:03:01;13.50;99.90
54461;DHT22;69977;49.414;11.010;2023-08-06T05:05:27;13.70;99.90
54461;DHT22;69977;49.414;11.010;2023-08-06T05:07:54;13.90;99.90
54461;DHT22;69977;49.414;11.010;2023-08-06T05:10:21;13.90;99.90
54461;DHT22;69977;49.414;11.010;2023-08-06T05:12:46;14.10;99.90
54461;DHT22;69977;49.414;11.010;2023-08-06T05:15:12;14.20;99.90
54461;DHT22;69977;49.414;11.010;2023-08-06T05:17:38;14.20;99.90
54461;DHT22;69977;49.414;11.010;2023-08-06T05:20:04;14.30;99.90
54461;DHT22;69977;49.414;11.010;2023-08-06T05:22:30;14.30;99.90
54461;DHT22;69977;49.414;11.010;2023-08-06T05:24:56;14.40;99.90
54461;DHT22;69977;49.414;11.010;2023-08-06T05:27:21;14.50;99.90
54461;DHT22;69977;49.414;11.010;2023-08-06T05:29:48;14.60;99.90
54461;DHT22;69977;49.414;11.010;2023-08-06T05:32:13;14.70;99.90
54461;DHT22;69977;49.414;11.010;2023-08-06T05:34:39;14.60;99.90
54461;DHT22;69977;49.414;11.010;2023-08-06T05:37:06;14.80;99.90
54461;DHT22;69977;49.414;11.010;2023-08-06T05:39:32;14.80;99.90
54461;DHT22;69977;49.414;11.010;2023-08-06T05:41:58;14.80;99.90
54461;DHT22;69977;49.414;11.010;2023-08-06T05:44:24;14.80;99.90
54461;DHT22;69977;49.414;11.010;2023-08-06T05:46:50;14.80;99.90
54461;DHT22;69977;49.414;11.010;2023-08-06T05:49:16;14.60;99.90
54461;DHT22;69977;49.414;11.010;2023-08-06T05:51:42;14.40;99.90
54461;DHT22;69977;49.414;11.010;2023-08-06T05:54:07;14.40;99.90
54461;DHT22;69977;49.414;11.010;2023-08-06T05:56:33;14.40;99.90
54461;DHT22;69977;49.414;11.010;2023-08-06T05:58:59;14.50;99.90
54461;DHT22;69977;49.414;11.010;2023-08-06T06:01:25;14.70;99.90
54461;DHT22;69977;49.414;11.010;2023-08-06T06:03:51;15.00;99.90
54461;DHT22;69977;49.414;11.010;2023-08-06T06:06:17;15.20;99.90
54461;DHT22;69977;49.414;11.010;2023-08-06T06:08:45;15.40;99.90
54461;DHT22;69977;49.414;11.010;2023-08-06T06:11:10;15.40;99.90
54461;DHT22;69977;49.414;11.010;2023-08-06T06:13:36;15.40;99.90
54461;DHT22;69977;49.414;11.010;2023-08-06T06:16:02;15.40;99.90
54461;DHT22;69977;49.414;11.010;2023-08-06T06:18:28;15.50;99.90
54461;DHT22;69977;49.414;11.010;2023-08-06T06:20:53;15.50;99.90
54461;DHT22;69977;49.414;11.010;2023-08-06T06:23:19;15.50;99.90
54461;DHT22;69977;49.414;11.010;2023-08-06T06:25:49;15.50;99.90
54461;DHT22;69977;49.414;11.010;2023-08-06T06:28:17;15.50;99.90
54461;DHT22;69977;49.414;11.010;2023-08-06T06:30:43;15.50;99.90
54461;DHT22;69977;49.414;11.010;2023-08-06T06:33:09;15.40;99.90
54461;DHT22;69977;49.414;11.010;2023-08-06T06:35:35;15.50;99.90
54461;DHT22;69977;49.414;11.010;2023-08-06T06:38:00;15.40;99.90
54461;DHT22;69977;49.414;11.010;2023-08-06T06:40:26;15.40;99.90
54461;DHT22;69977;49.414;11.010;2023-08-06T06:42:52;15.50;99.90
54461;DHT22;69977;49.414;11.010;2023-08-06T06:45:18;15.50;99.90
54461;DHT22;69977;49.414;11.010;2023-08-06T06:47:44;15.50;99.90
54461;DHT22;69977;49.414;11.010;2023-08-06T06:50:09;15.60;99.90
54461;DHT22;69977;49.414;11.010;2023-08-06T06:52:35;15.60;99.90
54461;DHT22;69977;49.414;11.010;2023-08-06T06:55:01;15.80;99.90
54461;DHT22;69977;49.414;11.010;2023-08-06T06:57:27;15.80;99.90
54461;DHT22;69977;49.414;11.010;2023-08-06T06:59:52;15.90;99.90
54461;DHT22;69977;49.414;11.010;2023-08-06T07:02:18;15.90;99.90
54461;DHT22;69977;49.414;11.010;2023-08-06T07:04:44;15.90;99.90
54461;DHT22;69977;49.414;11.010;2023-08-06T07:07:10;16.00;99.90
54461;DHT22;69977;49.414;11.010;2023-08-06T07:09:35;16.00;99.90
54461;DHT22;69977;49.414;11.010;2023-08-06T07:12:01;16.00;99.90
54461;DHT22;69977;49.414;11.010;2023-08-06T07:14:28;16.00;99.90
54461;DHT22;69977;49.414;11.010;2023-08-06T07:16:54;16.10;99.90
54461;DHT22;69977;49.414;11.010;2023-08-06T07:19:20;16.10;99.90
54461;DHT22;69977;49.414;11.010;2023-08-06T07:21:46;16.20;99.90
54461;DHT22;69977;49.414;11.010;2023-08-06T07:24:12;16.20;99.90
54461;DHT22;69977;49.414;11.010;2023-08-06T07:26:38;16.10;99.90
54461;DHT22;69977;49.414;11.010;2023-08-06T07:29:04;16.10;99.90
54461;DHT22;69977;49.414;11.010;2023-08-06T07:31:29;16.20;99.90
54461;DHT22;69977;49.414;11.010;2023-08-06T07:33:55;16.20;99.90
54461;DHT22;69977;49.414;11.010;2023-08-06T07:36:21;16.20;99.90
54461;DHT22;69977;49.414;11.010;2023-08-06T07:38:47;16.30;99.90
54461;DHT22;69977;49.414;11.010;2023-08-06T07:41:17;16.30;99.90
54461;DHT22;69977;49.414;11.010;2023-08-06T07:43:42;16.20;99.90
54461;DHT22;69977;49.414;11.010;2023-08-06T07:46:08;16.20;99.90
54461;DHT22;69977;49.414;11.010;2023-08-06T07:48:34;16.40;99.90
54461;DHT22;69977;49.414;11.010;2023-08-06T07:51:00;16.40;99.90
54461;DHT22;69977;49.414;11.010;2023-08-06T07:53:26;16.40;99.90
54461;DHT22;69977;49.414;11.010;2023-08-06T07:55:57;16.50;99.90
54461;DHT22;69977;49.414;11.010;2023-08-06T07:58:25;16.60;99.90
54461;DHT22;69977;49.414;11.010;2023-08-06T08:00:51;16.60;99.90
54461;DHT22;69977;49.414;11.010;2023-08-06T08:03:17;16.80;99.90
54461;DHT22;69977;49.414;11.010;2023-08-06T08:05:43;17.00;99.90
54461;DHT22;69977;49.414;11.010;2023-08-06T08:08:09;17.30;99.90
54461;DHT22;69977;49.414;11.010;2023-08-06T08:10:35;17.20;99.90
54461;DHT22;69977;49.414;11.010;2023-08-06T08:13:05;17.20;99.90
54461;DHT22;69977;49.414;11.010;2023-08-06T08:15:31;16.50;99.90
54461;DHT22;69977;49.414;11.010;2023-08-06T08:17:58;16.10;99.90
54461;DHT22;69977;49.414;11.010;2023-08-06T08:20:24;15.90;99.90
54461;DHT22;69977;49.414;11.010;2023-08-06T08:22:50;15.90;99.90
54461;DHT22;69977;49.414;11.010;2023-08-06T08:25:16;15.90;99.90
54461;DHT22;69977;49.414;11.010;2023-08-06T08:27:42;16.20;99.90
54461;DHT22;69977;49.414;11.010;2023-08-06T08:30:08;16.40;99.90
54461;DHT22;69977;49.414;11.010;2023-08-06T08:32:34;16.50;99.90
54461;DHT22;69977;49.414;11.010;2023-08-06T08:34:59;16.50;99.90
54461;DHT22;69977;49.414;11.010;2023-08-06T08:37:25;16.70;99.90
54461;DHT22;69977;49.414;11.010;2023-08-06T08:39:51;16.60;99.90
54461;DHT22;69977;49.414;11.010;2023-08-06T08:42:17;16.70;99.90
54461;DHT22;69977;49.414;11.010;2023-08-06T08:44:44;16.80;99.90
54461;DHT22;69977;49.414;11.010;2023-08-06T08:47:10;16.70;99.90
54461;DHT22;69977;49.414;11.010;2023-08-06T08:49:37;16.70;99.90
54461;DHT22;69977;49.414;11.010;2023-08-06T08:52:04;17.00;99.90
54461;DHT22;69977;49.414;11.010;2023-08-06T08:54:33;16.80;99.90
54461;DHT22;69977;49.414;11.010;2023-08-06T08:56:59;16.60;99.90
54461;DHT22;69977;49.414;11.010;2023-08-06T08:59:27;16.50;99.90
54461;DHT22;69977;49.414;11.010;2023-08-06T09:01:54;16.50;99.90
54461;DHT22;69977;49.414;11.010;2023-08-06T09:04:21;16.60;99.90
54461;DHT22;69977;49.414;11.010;2023-08-06T09:06:50;16.50;99.90
54461;DHT22;69977;49.414;11.010;2023-08-06T09:09:31;16.60;99.90
54461;DHT22;69977;49.414;11.010;2023-08-06T09:12:10;16.60;99.90
54461;DHT22;69977;49.414;11.010;2023-08-06T09:14:36;16.60;99.90
54461;DHT22;69977;49.414;11.010;2023-08-06T09:17:02;16.50;99.90
54461;DHT22;69977;49.414;11.010;2023-08-06T09:19:30;16.70;99.90
54461;DHT22;69977;49.414;11.010;2023-08-06T09:21:56;16.80;99.90
54461;DHT22;69977;49.414;11.010;2023-08-06T09:24:22;16.90;99.90
54461;DHT22;69977;49.414;11.010;2023-08-06T09:26:48;17.20;99.90
54461;DHT22;69977;49.414;11.010;2023-08-06T09:29:14;17.40;99.90
54461;DHT22;69977;49.414;11.010;2023-08-06T09:31:44;17.50;99.90
54461;DHT22;69977;49.414;11.010;2023-08-06T09:34:11;17.40;99.90
54461;DHT22;69977;49.414;11.010;2023-08-06T09:36:48;17.40;99.90
54461;DHT22;69977;49.414;11.010;2023-08-06T09:39:18;17.50;99.90
54461;DHT22;69977;49.414;11.010;2023-08-06T09:41:45;17.60;99.90
54461;DHT22;69977;49.414;11.010;2023-08-06T09:44:21;17.30;99.90
54461;DHT22;69977;49.414;11.010;2023-08-06T09:46:52;17.30;99.90
54461;DHT22;69977;49.414;11.010;2023-08-06T09:49:19;17.50;99.90
54461;DHT22;69977;49.414;11.010;2023-08-06T09:51:46;17.30;99.90
54461;DHT22;69977;49.414;11.010;2023-08-06T09:54:12;17.30;99.90
54461;DHT22;69977;49.414;11.010;2023-08-06T09:56:38;17.20;99.90
54461;DHT22;69977;49.414;11.010;2023-08-06T09:59:05;17.20;99.90
54461;DHT22;69977;49.414;11.010;2023-08-06T10:01:35;17.20;99.90
54461;DHT22;69977;49.414;11.010;2023-08-06T10:04:05;17.20;99.90
54461;DHT22;69977;49.414;11.010;2023-08-06T10:06:34;17.30;99.90
54461;DHT22;69977;49.414;11.010;2023-08-06T10:09:04;17.40;99.90
54461;DHT22;69977;49.414;11.010;2023-08-06T10:11:30;17.40;99.90
54461;DHT22;69977;49.414;11.010;2023-08-06T10:14:10;17.60;99.90
54461;DHT22;69977;49.414;11.010;2023-08-06T10:16:38;17.60;99.90
54461;DHT22;69977;49.414;11.010;2023-08-06T10:19:07;17.60;99.90
54461;DHT22;69977;49.414;11.010;2023-08-06T10:21:34;17.60;99.90
54461;DHT22;69977;49.414;11.010;2023-08-06T10:24:00;17.70;99.90
54461;DHT22;69977;49.414;11.010;2023-08-06T10:26:28;17.70;99.90
54461;DHT22;69977;49.414;11.010;2023-08-06T10:28:54;17.90;99.90
54461;DHT22;69977;49.414;11.010;2023-08-06T10:31:24;18.30;99.90
54461;DHT22;69977;49.414;11.010;2023-08-06T10:34:06;18.60;99.90
54461;DHT22;69977;49.414;11.010;2023-08-06T10:36:32;18.40;99.90
54461;DHT22;69977;49.414;11.010;2023-08-06T10:38:58;18.00;99.90
54461;DHT22;69977;49.414;11.010;2023-08-06T10:41:29;17.80;99.90
54461;DHT22;69977;49.414;11.010;2023-08-06T10:44:08;17.90;99.90
54461;DHT22;69977;49.414;11.010;2023-08-06T10:46:34;18.90;99.90
54461;DHT22;69977;49.414;11.010;2023-08-06T10:49:01;19.30;99.90
54461;DHT22;69977;49.414;11.010;2023-08-06T10:51:27;19.60;99.90
54461;DHT22;69977;49.414;11.010;2023-08-06T10:53:53;19.80;99.90
54461;DHT22;69977;49.414;11.010;2023-08-06T10:56:19;19.30;99.90
54461;DHT22;69977;49.414;11.010;2023-08-06T10:58:48;18.70;99.90
54461;DHT22;69977;49.414;11.010;2023-08-06T11:01:14;18.60;99.90
54461;DHT22;69977;49.414;11.010;2023-08-06T11:03:41;19.00;99.90
54461;DHT22;69977;49.414;11.010;2023-08-06T11:06:08;20.50;99.90
54461;DHT22;69977;49.414;11.010;2023-08-06T11:08:40;21.30;99.90
54461;DHT22;69977;49.414;11.010;2023-08-06T11:11:14;21.40;99.90
54461;DHT22;69977;49.414;11.010;2023-08-06T11:13:44;22.20;99.90
54461;DHT22;69977;49.414;11.010;2023-08-06T11:16:12;21.10;99.90
54461;DHT22;69977;49.414;11.010;2023-08-06T11:18:40;21.10;99.90
54461;DHT22;69977;49.414;11.010;2023-08-06T11:21:06;21.20;99.90
54461;DHT22;69977;49.414;11.010;2023-08-06T11:23:34;21.50;99.90
54461;DHT22;69977;49.414;11.010;2023-08-06T11:26:01;20.80;99.90
54461;DHT22;69977;49.414;11.010;2023-08-06T11:28:27;20.70;99.90
54461;DHT22;69977;49.414;11.010;2023-08-06T11:30:53;20.90;99.90
54461;DHT22;69977;49.414;11.010;2023-08-06T11:36:46;19.40;99.90
54461;DHT22;69977;49.414;11.010;2023-08-06T11:39:12;18.90;99.90
54461;DHT22;69977;49.414;11.010;2023-08-06T11:41:38;18.60;99.90
54461;DHT22;69977;49.414;11.010;2023-08-06T11:44:05;18.50;99.90
54461;DHT22;69977;49.414;11.010;2023-08-06T11:46:53;18.80;99.90
54461;DHT22;69977;49.414;11.010;2023-08-06T11:49:37;18.90;99.90
54461;DHT22;69977;49.414;11.010;2023-08-06T11:52:29;18.90;99.90
54461;DHT22;69977;49.414;11.010;2023-08-06T11:57:39;19.40;99.90
54461;DHT22;69977;49.414;11.010;2023-08-06T12:00:06;19.60;99.90
54461;DHT22;69977;49.414;11.010;2023-08-06T12:02:40;19.90;99.90
54461;DHT22;69977;49.414;11.010;2023-08-06T12:05:10;19.90;99.90
54461;DHT22;69977;49.414;11.010;2023-08-06T12:07:38;19.70;99.90
54461;DHT22;69977;49.414;11.010;2023-08-06T12:10:05;19.90;99.90
54461;DHT22;69977;49.414;11.010;2023-08-06T12:12:30;19.60;99.90
54461;DHT22;69977;49.414;11.010;2023-08-06T12:14:56;19.60;99.90
54461;DHT22;69977;49.414;11.010;2023-08-06T12:17:26;19.50;99.90
54461;DHT22;69977;49.414;11.010;2023-08-06T12:19:52;20.40;99.90
54461;DHT22;69977;49.414;11.010;2023-08-06T12:22:18;20.60;99.90
54461;DHT22;69977;49.414;11.010;2023-08-06T12:24:45;20.60;99.90
54461;DHT22;69977;49.414;11.010;2023-08-06T12:27:11;20.70;99.90
54461;DHT22;69977;49.414;11.010;2023-08-06T12:29:41;20.30;99.90
54461;DHT22;69977;49.414;11.010;2023-08-06T12:32:09;19.90;99.90
54461;DHT22;69977;49.414;11.010;2023-08-06T12:34:34;19.60;99.90
54461;DHT22;69977;49.414;11.010;2023-08-06T12:37:01;19.20;99.90
54461;DHT22;69977;49.414;11.010;2023-08-06T12:39:27;19.00;99.90
54461;DHT22;69977;49.414;11.010;2023-08-06T12:41:55;18.90;99.90
54461;DHT22;69977;49.414;11.010;2023-08-06T12:44:21;18.90;99.90
54461;DHT22;69977;49.414;11.010;2023-08-06T12:46:47;19.70;99.90
54461;DHT22;69977;49.414;11.010;2023-08-06T12:49:12;20.10;99.90
54461;DHT22;69977;49.414;11.010;2023-08-06T12:51:38;19.80;99.90
54461;DHT22;69977;49.414;11.010;2023-08-06T12:54:04;20.80;99.90
54461;DHT22;69977;49.414;11.010;2023-08-06T12:56:29;20.80;99.90
54461;DHT22;69977;49.414;11.010;2023-08-06T12:58:55;20.20;99.90
54461;DHT22;69977;49.414;11.010;2023-08-06T13:01:21;19.70;99.90
54461;DHT22;69977;49.414;11.010;2023-08-06T13:03:47;19.50;99.90
54461;DHT22;69977;49.414;11.010;2023-08-06T13:06:12;19.10;99.90
54461;DHT22;69977;49.414;11.010;2023-08-06T13:08:38;19.40;99.90
54461;DHT22;69977;49.414;11.010;2023-08-06T13:11:04;19.70;99.90
54461;DHT22;69977;49.414;11.010;2023-08-06T13:13:30;19.40;99.90
54461;DHT22;69977;49.414;11.010;2023-08-06T13:15:56;19.50;99.90
54461;DHT22;69977;49.414;11.010;2023-08-06T13:18:22;20.10;99.90
54461;DHT22;69977;49.414;11.010;2023-08-06T13:20:47;20.70;99.90
54461;DHT22;69977;49.414;11.010;2023-08-06T13:23:15;20.20;99.90
54461;DHT22;69977;49.414;11.010;2023-08-06T13:25:42;20.70;99.90
54461;DHT22;69977;49.414;11.010;2023-08-06T13:28:08;19.80;99.90
54461;DHT22;69977;49.414;11.010;2023-08-06T13:30:34;20.30;99.90
54461;DHT22;69977;49.414;11.010;2023-08-06T13:33:01;20.50;99.90
54461;DHT22;69977;49.414;11.010;2023-08-06T13:35:27;20.30;99.90
54461;DHT22;69977;49.414;11.010;2023-08-06T13:37:52;19.90;99.90
54461;DHT22;69977;49.414;11.010;2023-08-06T13:40:20;18.90;99.90
54461;DHT22;69977;49.414;11.010;2023-08-06T13:42:45;18.70;99.90
54461;DHT22;69977;49.414;11.010;2023-08-06T13:45:11;18.60;99.90
54461;DHT22;69977;49.414;11.010;2023-08-06T13:47:37;18.40;99.90
54461;DHT22;69977;49.414;11.010;2023-08-06T13:50:03;18.20;99.90
54461;DHT22;69977;49.414;11.010;2023-08-06T13:52:29;18.30;99.90
54461;DHT22;69977;49.414;11.010;2023-08-06T13:54:54;18.10;99.90
54461;DHT22;69977;49.414;11.010;2023-08-06T13:57:20;17.70;99.90
54461;DHT22;69977;49.414;11.010;2023-08-06T13:59:46;17.70;99.90
54461;DHT22;69977;49.414;11.010;2023-08-06T14:02:12;17.80;99.90
54461;DHT22;69977;49.414;11.010;2023-08-06T14:04:38;17.60;99.90
54461;DHT22;69977;49.414;11.010;2023-08-06T14:07:05;17.40;99.90
54461;DHT22;69977;49.414;11.010;2023-08-06T14:09:31;17.50;99.90
54461;DHT22;69977;49.414;11.010;2023-08-06T14:11:56;17.20;99.90
54461;DHT22;69977;49.414;11.010;2023-08-06T14:14:22;17.30;99.90
54461;DHT22;69977;49.414;11.010;2023-08-06T14:16:54;17.20;99.90
54461;DHT22;69977;49.414;11.010;2023-08-06T14:19:20;17.00;99.90
54461;DHT22;69977;49.414;11.010;2023-08-06T14:21:46;16.90;99.90
54461;DHT22;69977;49.414;11.010;2023-08-06T14:24:12;16.70;99.90
54461;DHT22;69977;49.414;11.010;2023-08-06T14:26:38;16.70;99.90
54461;DHT22;69977;49.414;11.010;2023-08-06T14:29:04;16.70;99.90
54461;DHT22;69977;49.414;11.010;2023-08-06T14:31:30;16.70;99.90
54461;DHT22;69977;49.414;11.010;2023-08-06T14:33:55;16.60;99.90
54461;DHT22;69977;49.414;11.010;2023-08-06T14:36:21;16.60;99.90
54461;DHT22;69977;49.414;11.010;2023-08-06T14:38:47;16.70;99.90
54461;DHT22;69977;49.414;11.010;2023-08-06T14:41:13;16.80;99.90
54461;DHT22;69977;49.414;11.010;2023-08-06T14:43:39;16.70;99.90
54461;DHT22;69977;49.414;11.010;2023-08-06T14:46:04;16.80;99.90
54461;DHT22;69977;49.414;11.010;2023-08-06T14:48:30;17.10;99.90
54461;DHT22;69977;49.414;11.010;2023-08-06T14:50:56;17.20;99.90
54461;DHT22;69977;49.414;11.010;2023-08-06T14:53:22;17.10;99.90
54461;DHT22;69977;49.414;11.010;2023-08-06T14:55:48;16.80;99.90
54461;DHT22;69977;49.414;11.010;2023-08-06T14:58:14;16.80;99.90
54461;DHT22;69977;49.414;11.010;2023-08-06T15:00:40;16.80;99.90
54461;DHT22;69977;49.414;11.010;2023-08-06T15:03:05;17.00;99.90
54461;DHT22;69977;49.414;11.010;2023-08-06T15:05:31;17.10;99.90
54461;DHT22;69977;49.414;11.010;2023-08-06T15:07:57;17.20;99.90
54461;DHT22;69977;49.414;11.010;2023-08-06T15:10:23;17.30;99.90
54461;DHT22;69977;49.414;11.010;2023-08-06T15:12:49;17.20;99.90
54461;DHT22;69977;49.414;11.010;2023-08-06T15:15:14;17.20;99.90
54461;DHT22;69977;49.414;11.010;2023-08-06T15:17:40;17.00;99.90
54461;DHT22;69977;49.414;11.010;2023-08-06T15:20:07;17.00;99.90
54461;DHT22;69977;49.414;11.010;2023-08-06T15:22:33;16.80;99.90
54461;DHT22;69977;49.414;11.010;2023-08-06T15:25:02;16.70;99.90
54461;DHT22;69977;49.414;11.010;2023-08-06T15:27:29;16.70;99.90